world map with CYUS marked

CYUS - Airport

This information may not be accurate or current and is not valid for navigation or flight planning. No warranty of fitness for any purpose is made or implied.

flag of Nunavutflag of Canada

Donate via PayPal

Additional information is available on the NEW Great Circle Mapper

Location
City:  Shepherd Bay, Nunavut, Canada
ICAO:CYUS

Details
Type:Airport (Airfield)
Latitude:68°47'45"N (68.795833)
Longitude:93°25'06"W (-93.418332)
Runways:1
Longest:4450 × 175 ft (1356 × 53.5 m)

Time
Timezone:UTC+28:08 (DST+31:08)
Local Time:

Weather
METAR:CYUS  041400Z AUTO 09014KT ////SM //// OVC110 M40/M46 A3015

Related Locations
Nearby:
Farthest:YWKS: 11767 mi / 18937 km
Wilkins Runway (Casey), Upper Peterson Glacier, AQ

Find:

   beyond  
but within

Other Information
Maps:
Sources:

  


 


Great Circle Mapper   Great Circle Mapper
Great Circle Mapper FAQ   Great Circle Mapper FAQ
  Karl's Home Page
KLSē   KLSē Home
   GC on Facebook
Airlines of the World   Airlines of the World
Donate via PayPal


Copyright © 2004-2019, Karl L. Swartz. All rights reserved.
All trademarks mentioned herein belong to their respective owners.

Please see credits for attribution and copyright information.

Karl Swartz <karl@kls2.com>
  Powered by FreeBSD
Valid HTML 4.01!
Labeled with ICRA
hCard Microformat
Geo Microformat